Time;durP1;ratioP1;P1;durP2;ratioP2;P2;SDS_P1;SDS_P2;PMS_P1;PMS_P2;Temp;Humidity;BMP_temperature;BMP_pressure;BME280_temperature;BME280_humidity;BME280_pressure;Samples;Min_cycle;Max_cycle;Signal;HPM_P1;HPM_P2
2023/06/14 00:02:14;;;;;;;;;24.25;21.00;;;;;17.44;84.03;98665.25;6220635;28;98350;-72
2023/06/14 00:05:19;;;;;;;;;25.00;21.00;;;;;17.45;83.98;98658.69;6238297;28;96896;-72
2023/06/14 00:08:24;;;;;;;;;24.00;22.40;;;;;17.47;84.19;98659.25;6237557;28;96811;-71
2023/06/14 00:11:28;;;;;;;;;22.40;19.40;;;;;17.49;83.67;98653.53;6236066;28;98555;-72
2023/06/14 00:14:31;;;;;;;;;20.50;19.00;;;;;17.52;83.62;98661.16;6236886;28;96336;-72
2023/06/14 00:17:36;;;;;;;;;23.00;19.00;;;;;17.54;83.53;98656.25;6237443;27;96755;-72
2023/06/14 00:20:41;;;;;;;;;21.60;20.00;;;;;17.58;83.65;98668.25;6237293;27;96283;-72
2023/06/14 00:23:45;;;;;;;;;21.00;18.00;;;;;17.60;83.45;98663.34;6237831;27;96284;-72
2023/06/14 00:26:48;;;;;;;;;18.60;17.00;;;;;17.60;83.47;98660.63;6237541;28;96485;-72
2023/06/14 00:29:52;;;;;;;;;18.00;16.40;;;;;17.65;83.15;98656.00;6205027;28;96776;-73
2023/06/14 00:32:55;;;;;;;;;22.00;20.00;;;;;17.69;82.93;98654.34;6228647;28;96540;-73
2023/06/14 00:36:02;;;;;;;;;28.00;25.60;;;;;17.73;82.74;98655.47;6227338;28;96326;-72
2023/06/14 00:39:05;;;;;;;;;26.80;24.20;;;;;17.80;82.67;98657.06;6237758;27;96301;-72
2023/06/14 00:42:11;;;;;;;;;23.20;21.60;;;;;17.77;82.74;98663.91;6219197;28;96641;-71
2023/06/14 00:45:14;;;;;;;;;21.00;20.00;;;;;17.70;82.84;98647.00;6235411;27;96798;-71
2023/06/14 00:48:18;;;;;;;;;24.00;22.00;;;;;17.70;83.54;98652.44;6237005;28;96294;-71
2023/06/14 00:51:23;;;;;;;;;24.60;23.60;;;;;17.70;84.30;98647.81;6236223;28;96266;-72
2023/06/14 00:54:27;;;;;;;;;22.60;21.40;;;;;17.72;84.32;98645.66;6236368;28;97134;-72
2023/06/14 00:57:30;;;;;;;;;24.25;20.75;;;;;17.74;84.27;98648.06;6235496;28;96659;-71
2023/06/14 01:00:34;;;;;;;;;20.40;19.00;;;;;17.77;84.22;98644.00;6212760;28;96367;-72
2023/06/14 01:03:37;;;;;;;;;21.00;17.40;;;;;17.78;84.01;98643.72;6212834;28;96319;-71
2023/06/14 01:06:53;;;;;;;;;21.40;18.00;;;;;17.75;84.27;98636.09;6232824;28;96412;-71
2023/06/14 01:10:09;;;;;;;;;18.25;16.00;;;;;17.74;83.95;98637.16;6213735;28;96284;-70
2023/06/14 01:13:19;;;;;;;;;20.00;18.60;;;;;17.74;84.17;98629.00;6245709;28;97278;-69
2023/06/14 01:16:22;;;;;;;;;17.80;16.00;;;;;17.75;84.72;98636.09;6251466;28;96584;-70
2023/06/14 01:19:28;;;;;;;;;18.75;17.50;;;;;17.78;84.36;98632.00;6250795;27;96208;-70
2023/06/14 01:22:32;;;;;;;;;16.80;14.80;;;;;17.78;85.78;98635.56;6264252;27;96823;-70
2023/06/14 01:25:38;;;;;;;;;21.20;16.00;;;;;17.80;86.22;98627.06;6251855;27;96412;-70
2023/06/14 01:28:46;;;;;;;;;18.00;16.80;;;;;17.78;85.92;98627.38;6249228;28;96302;-70
2023/06/14 01:31:51;;;;;;;;;17.60;15.60;;;;;17.74;85.40;98620.81;6247463;28;98604;-70
2023/06/14 01:34:55;;;;;;;;;16.00;14.60;;;;;17.76;85.96;98615.91;6249757;27;96265;-70
2023/06/14 01:38:00;;;;;;;;;20.00;16.00;;;;;17.79;87.29;98618.06;6274046;27;96356;-71
2023/06/14 01:41:07;;;;;;;;;18.60;16.60;;;;;17.82;86.64;98616.72;6232980;27;97117;-71
2023/06/14 01:44:11;;;;;;;;;19.60;17.00;;;;;17.82;86.75;98614.81;6246350;28;96256;-71
2023/06/14 01:47:15;;;;;;;;;19.00;16.60;;;;;17.86;86.42;98609.63;6250576;27;96673;-69
2023/06/14 01:50:21;;;;;;;;;15.60;13.80;;;;;17.88;85.94;98618.34;6262282;27;96204;-71
2023/06/14 01:53:24;;;;;;;;;16.00;15.40;;;;;17.87;86.15;98612.09;6244068;28;98506;-69
2023/06/14 01:56:29;;;;;;;;;15.00;14.75;;;;;17.90;86.13;98610.69;6245158;28;96252;-69
2023/06/14 01:59:34;;;;;;;;;19.33;17.00;;;;;17.92;85.76;98619.44;6244726;28;96965;-69
2023/06/14 02:02:38;;;;;;;;;18.00;16.00;;;;;17.89;85.92;98626.25;6228506;27;96633;-70
2023/06/14 02:05:41;;;;;;;;;15.00;15.00;;;;;17.79;85.66;98620.81;6256495;27;96288;-70
2023/06/14 02:08:44;;;;;;;;;16.00;14.00;;;;;17.72;85.02;98618.38;6246314;28;96919;-70
2023/06/14 02:11:49;;;;;;;;;18.00;15.40;;;;;17.63;85.09;98616.47;6233810;27;96277;-70
2023/06/14 02:14:53;;;;;;;;;16.00;15.00;;;;;17.58;85.40;98619.19;6272396;27;96350;-70
2023/06/14 02:17:58;;;;;;;;;15.40;14.40;;;;;17.55;85.38;98611.53;6247406;27;96286;-69
2023/06/14 02:21:02;;;;;;;;;13.00;12.00;;;;;17.59;85.65;98613.47;6257242;27;96558;-69
2023/06/14 02:24:06;;;;;;;;;15.67;15.00;;;;;17.57;85.43;98610.19;6274929;27;96236;-69
2023/06/14 02:27:11;;;;;;;;;16.00;16.00;;;;;17.51;85.56;98607.72;6255199;27;96628;-69
2023/06/14 02:30:15;;;;;;;;;14.50;13.00;;;;;17.48;85.38;98608.28;6248213;27;96628;-70
2023/06/14 02:33:19;;;;;;;;;15.00;13.25;;;;;17.44;85.53;98610.72;6248993;27;96238;-70
2023/06/14 02:36:23;;;;;;;;;16.50;14.50;;;;;17.40;85.54;98604.16;6261714;27;97287;-70
2023/06/14 02:39:26;;;;;;;;;14.00;13.00;;;;;17.49;85.26;98610.75;6274360;27;96804;-69
2023/06/14 02:42:31;;;;;;;;;15.50;14.00;;;;;17.49;85.12;98608.00;6254377;27;96652;-70
2023/06/14 02:45:34;;;;;;;;;14.60;14.00;;;;;17.49;85.34;98612.63;6250107;27;96276;-70
2023/06/14 02:48:38;;;;;;;;;15.00;13.00;;;;;17.38;85.44;98603.66;6252698;27;96429;-70
2023/06/14 02:51:41;;;;;;;;;18.50;16.00;;;;;17.29;85.00;98605.28;6252405;27;96814;-70
2023/06/14 02:54:46;;;;;;;;;20.00;17.75;;;;;17.28;85.14;98609.09;6235117;28;98918;-70
2023/06/14 02:57:50;;;;;;;;;16.40;15.40;;;;;17.25;85.13;98615.09;6252261;28;96246;-71
2023/06/14 03:00:54;;;;;;;;;22.00;19.40;;;;;17.24;85.00;98611.53;6252862;28;96321;-72
2023/06/14 03:03:58;;;;;;;;;17.75;14.25;;;;;17.20;85.11;98613.16;6250674;28;97406;-68
2023/06/14 03:07:02;;;;;;;;;18.60;16.00;;;;;17.15;85.27;98612.34;6250374;28;96222;-70
2023/06/14 03:10:07;;;;;;;;;18.00;16.00;;;;;17.17;85.10;98610.16;6255353;27;96499;-70
2023/06/14 03:13:12;;;;;;;;;20.00;16.50;;;;;17.19;84.96;98608.81;6252749;27;97201;-69
2023/06/14 03:16:17;;;;;;;;;20.60;20.00;;;;;17.20;85.51;98615.88;6247457;27;96647;-69
2023/06/14 03:19:21;;;;;;;;;20.80;18.80;;;;;17.20;85.82;98612.38;6245845;28;96635;-69
2023/06/14 03:22:25;;;;;;;;;14.00;14.00;;;;;17.19;86.13;98622.44;6248972;28;96182;-70
2023/06/14 03:25:29;;;;;;;;;18.25;16.25;;;;;17.19;86.03;98621.63;6232650;27;96872;-70
2023/06/14 03:28:34;;;;;;;;;20.00;19.00;;;;;17.14;86.69;98616.97;6250001;27;96258;-70
2023/06/14 03:31:42;;;;;;;;;18.40;17.40;;;;;17.07;87.48;98619.13;6249903;27;97165;-69
2023/06/14 03:34:46;;;;;;;;;20.00;16.00;;;;;16.98;88.69;98614.50;6250629;27;96299;-70
2023/06/14 03:37:54;;;;;;;;;20.40;19.00;;;;;16.97;89.27;98605.50;6225425;28;98478;-70
2023/06/14 03:40:59;;;;;;;;;18.00;15.75;;;;;16.96;89.94;98620.19;6247247;28;96274;-70
2023/06/14 03:44:04;;;;;;;;;20.00;16.50;;;;;17.01;90.19;98611.22;6250002;28;96239;-70
2023/06/14 03:47:07;;;;;;;;;20.40;18.40;;;;;17.00;89.97;98617.78;6245842;27;96484;-70
2023/06/14 03:50:12;;;;;;;;;18.25;17.25;;;;;16.99;90.26;98622.41;6234203;27;96861;-70
2023/06/14 03:53:16;;;;;;;;;18.00;17.00;;;;;17.01;90.11;98622.09;6254984;27;96390;-70
2023/06/14 03:56:24;;;;;;;;;17.40;15.00;;;;;16.98;90.47;98614.50;6231547;28;97189;-70
2023/06/14 03:59:29;;;;;;;;;21.00;19.60;;;;;17.03;90.29;98618.03;6251105;28;96765;-70
2023/06/14 04:02:32;;;;;;;;;19.00;16.60;;;;;17.01;90.70;98622.94;6242014;28;98430;-70
2023/06/14 04:05:37;;;;;;;;;21.00;19.00;;;;;17.00;90.80;98626.75;6255075;27;96329;-70
2023/06/14 04:08:41;;;;;;;;;22.00;19.00;;;;;16.99;91.52;98618.84;6260412;27;96260;-70
2023/06/14 04:11:45;;;;;;;;;18.50;16.75;;;;;16.91;91.73;98619.41;6272341;27;96219;-70
2023/06/14 04:14:49;;;;;;;;;20.40;17.00;;;;;16.74;93.13;98631.31;6243302;27;97345;-70
2023/06/14 04:17:57;;;;;;;;;18.20;17.20;;;;;16.77;93.85;98633.50;6256769;27;96223;-70
2023/06/14 04:21:01;;;;;;;;;21.00;17.40;;;;;16.83;93.73;98637.88;6243705;27;96613;-69
2023/06/14 04:24:06;;;;;;;;;19.00;17.00;;;;;16.77;94.16;98633.50;6262607;27;96396;-70
2023/06/14 04:27:10;;;;;;;;;18.00;16.00;;;;;16.80;94.19;98637.59;6256264;27;96885;-70
2023/06/14 04:30:16;;;;;;;;;22.50;19.75;;;;;16.73;94.25;98628.84;6224599;27;96840;-70
2023/06/14 04:33:25;;;;;;;;;20.00;16.00;;;;;16.81;94.35;98642.75;6252780;28;96745;-70
2023/06/14 04:36:29;;;;;;;;;21.40;18.00;;;;;16.85;94.56;98645.78;6254699;28;96236;-71
2023/06/14 04:39:33;;;;;;;;;19.00;18.00;;;;;16.92;93.99;98640.06;6249735;27;96373;-70
2023/06/14 04:42:38;;;;;;;;;24.00;20.00;;;;;16.92;94.27;98638.16;6248335;27;96940;-70
2023/06/14 04:45:46;;;;;;;;;20.60;19.00;;;;;16.88;93.75;98646.06;6245163;28;96536;-72
2023/06/14 04:48:50;;;;;;;;;24.00;20.20;;;;;16.84;94.70;98638.69;6269892;27;96373;-69
2023/06/14 04:51:57;;;;;;;;;20.00;18.00;;;;;16.83;94.58;98646.03;6262048;27;96458;-70
2023/06/14 04:55:02;;;;;;;;;20.40;16.60;;;;;16.82;95.27;98635.41;6254618;27;96368;-70
2023/06/14 04:58:06;;;;;;;;;25.60;20.60;;;;;16.85;95.59;98640.34;6267970;27;96978;-71
2023/06/14 05:01:12;;;;;;;;;20.40;19.00;;;;;16.86;95.60;98637.34;6246605;27;98307;-70
2023/06/14 05:04:16;;;;;;;;;19.50;17.50;;;;;16.78;95.70;98620.72;6270631;27;96914;-71
2023/06/14 05:07:19;;;;;;;;;22.00;18.60;;;;;16.75;96.05;98640.31;6250961;27;97055;-71
2023/06/14 05:10:25;;;;;;;;;23.00;20.40;;;;;16.92;95.79;98640.88;6257367;27;98778;-71
2023/06/14 05:13:32;;;;;;;;;22.50;20.50;;;;;16.87;95.56;98636.25;6257810;27;96362;-69
2023/06/14 05:16:38;;;;;;;;;18.50;17.25;;;;;16.88;95.98;98640.63;6245200;27;96877;-71
2023/06/14 05:19:42;;;;;;;;;20.00;17.50;;;;;16.96;95.89;98644.72;6255397;27;96682;-70
2023/06/14 05:22:45;;;;;;;;;23.00;19.40;;;;;17.05;95.36;98651.28;6260266;27;96972;-70
2023/06/14 05:25:49;;;;;;;;;23.20;17.20;;;;;17.11;95.29;98643.91;6253684;27;97235;-69
2023/06/14 05:28:53;;;;;;;;;23.50;19.75;;;;;17.14;94.97;98644.22;6247229;28;96951;-71
2023/06/14 05:31:58;;;;;;;;;22.50;18.00;;;;;17.22;94.80;98649.13;6271121;27;96573;-71
2023/06/14 05:35:02;;;;;;;;;23.00;20.00;;;;;17.20;94.83;98645.06;6257857;27;96940;-72
2023/06/14 05:38:05;;;;;;;;;20.75;18.00;;;;;17.20;94.41;98653.22;6276743;27;98605;-70
2023/06/14 05:41:08;;;;;;;;;21.75;18.00;;;;;17.22;94.69;98654.56;6271833;27;96707;-70
2023/06/14 05:44:12;;;;;;;;;18.40;16.20;;;;;17.30;94.21;98654.03;6276151;27;96750;-69
2023/06/14 05:47:17;;;;;;;;;22.00;19.00;;;;;17.39;95.00;98648.06;6260621;27;97121;-70
2023/06/14 05:50:21;;;;;;;;;25.00;19.00;;;;;17.44;94.79;98654.34;6253891;28;96351;-70
2023/06/14 05:53:24;;;;;;;;;22.33;19.67;;;;;17.51;94.58;98654.88;6256298;27;96409;-70
2023/06/14 05:56:27;;;;;;;;;22.40;18.00;;;;;17.60;94.42;98655.16;6259126;27;96364;-70
2023/06/14 05:59:31;;;;;;;;;23.20;20.00;;;;;17.65;94.09;98663.34;6259056;28;96317;-69
2023/06/14 06:02:36;;;;;;;;;23.75;20.50;;;;;17.69;93.15;98667.19;6259201;28;96326;-70
2023/06/14 06:05:39;;;;;;;;;22.75;20.25;;;;;17.69;93.27;98664.47;6258801;27;96365;-70
2023/06/14 06:08:43;;;;;;;;;18.60;17.60;;;;;17.66;92.91;98659.53;6261777;27;96223;-70
2023/06/14 06:11:46;;;;;;;;;18.40;17.40;;;;;17.68;93.20;98668.28;6258651;28;98391;-70
2023/06/14 06:14:56;;;;;;;;;21.40;17.40;;;;;17.72;93.30;98672.09;6259346;28;96340;-70
2023/06/14 06:18:01;;;;;;;;;18.80;17.00;;;;;17.74;93.70;98673.44;6258607;28;96328;-70
2023/06/14 06:21:05;;;;;;;;;20.00;17.00;;;;;17.78;92.90;98675.63;6257251;28;96230;-70
2023/06/14 06:24:09;;;;;;;;;18.20;16.20;;;;;17.80;93.05;98674.25;6260062;27;96723;-70
2023/06/14 06:27:13;;;;;;;;;18.20;16.20;;;;;17.89;92.29;98678.06;6259558;27;96814;-70
2023/06/14 06:30:17;;;;;;;;;20.50;18.00;;;;;17.96;92.50;98681.34;6241335;28;98457;-70
2023/06/14 06:33:22;;;;;;;;;19.25;16.75;;;;;17.97;92.48;98673.97;6258911;28;96455;-70
2023/06/14 06:36:25;;;;;;;;;17.20;16.00;;;;;18.03;91.80;98681.88;6259913;28;96403;-70
2023/06/14 06:39:28;;;;;;;;;18.40;16.80;;;;;18.04;91.60;98696.31;6257379;28;96279;-70
2023/06/14 06:42:32;;;;;;;;;17.00;16.00;;;;;18.00;92.87;98695.25;6240119;28;98347;-70
2023/06/14 06:45:38;;;;;;;;;20.20;16.60;;;;;18.03;92.39;98702.91;6258031;28;96233;-70
2023/06/14 06:48:43;;;;;;;;;20.00;17.00;;;;;18.07;92.60;98702.06;6260371;27;96225;-70
2023/06/14 06:52:00;;;;;;;;;19.40;17.60;;;;;18.07;92.21;98702.06;6259617;27;96160;-70
2023/06/14 06:55:04;;;;;;;;;19.00;18.00;;;;;18.11;93.13;98702.31;6259848;27;96275;-69
2023/06/14 06:58:07;;;;;;;;;19.50;16.00;;;;;18.15;93.23;98703.41;6257262;28;96339;-71
2023/06/14 07:01:11;;;;;;;;;19.60;17.00;;;;;18.24;92.99;98709.13;6238670;28;96680;-69
2023/06/14 07:04:16;;;;;;;;;17.00;14.75;;;;;18.19;92.57;98705.31;6255915;28;96498;-70
2023/06/14 07:07:19;;;;;;;;;19.00;17.00;;;;;18.21;92.14;98712.41;6253424;27;96475;-70
2023/06/14 07:10:24;;;;;;;;;18.75;15.00;;;;;18.16;92.45;98708.59;6253268;28;96203;-70
2023/06/14 07:13:27;;;;;;;;;20.60;17.00;;;;;18.22;93.05;98703.97;6251461;27;96838;-70
2023/06/14 07:16:30;;;;;;;;;20.20;16.40;;;;;18.31;92.85;98713.22;6253374;27;96282;-70
2023/06/14 07:19:35;;;;;;;;;20.75;17.75;;;;;18.40;92.55;98722.47;6253180;28;96492;-70
2023/06/14 07:22:40;;;;;;;;;15.60;14.00;;;;;18.46;92.44;98726.00;6250265;27;96872;-70
2023/06/14 07:25:44;;;;;;;;;19.00;16.40;;;;;18.50;92.43;98724.34;6249448;27;96222;-71
2023/06/14 07:28:48;;;;;;;;;19.80;17.80;;;;;18.52;92.12;98736.63;6246159;28;96708;-71
2023/06/14 07:31:51;;;;;;;;;18.20;15.60;;;;;18.56;91.75;98731.47;6248219;27;96358;-71
2023/06/14 07:34:56;;;;;;;;;16.75;15.00;;;;;18.54;91.86;98733.66;6246472;28;96927;-71
2023/06/14 07:37:59;;;;;;;;;15.50;14.50;;;;;18.61;91.41;98736.94;6246647;28;96957;-71
2023/06/14 07:41:03;;;;;;;;;18.00;17.00;;;;;18.65;91.67;98739.91;6234202;28;96431;-71
2023/06/14 07:44:07;;;;;;;;;16.60;15.00;;;;;18.73;92.29;98731.97;6251084;28;96648;-71
2023/06/14 07:47:10;;;;;;;;;16.60;15.00;;;;;18.75;91.39;98734.41;6247136;28;98399;-71
2023/06/14 07:50:15;;;;;;;;;14.67;13.33;;;;;18.73;92.21;98742.06;6246861;27;96171;-72
2023/06/14 07:53:18;;;;;;;;;13.40;11.40;;;;;18.73;91.84;98740.16;6244056;28;98422;-72
2023/06/14 07:56:21;;;;;;;;;15.00;13.00;;;;;18.79;91.38;98738.22;6240341;27;96452;-72
2023/06/14 07:59:25;;;;;;;;;15.40;14.00;;;;;18.83;91.36;98742.84;6238396;28;96880;-72
2023/06/14 08:02:28;;;;;;;;;16.80;14.00;;;;;18.91;91.86;98750.47;6239441;27;98359;-72
2023/06/14 08:05:33;;;;;;;;;16.67;14.00;;;;;19.02;92.60;98745.78;6241187;28;96289;-72
2023/06/14 08:08:37;;;;;;;;;14.20;12.20;;;;;19.09;92.21;98738.09;6241268;28;97606;-72
2023/06/14 08:11:40;;;;;;;;;12.40;11.40;;;;;19.16;92.28;98735.06;6242769;28;96412;-72
2023/06/14 08:14:43;;;;;;;;;13.00;12.00;;;;;19.35;92.00;98736.06;6245076;27;96227;-73
2023/06/14 08:17:47;;;;;;;;;9.00;8.60;;;;;19.50;92.29;98729.72;6237963;28;97199;-73
2023/06/14 08:20:52;;;;;;;;;6.20;6.20;;;;;19.71;92.21;98736.66;6221470;28;98429;-73
2023/06/14 08:23:55;;;;;;;;;5.00;4.80;;;;;19.80;90.47;98735.78;6241259;27;96049;-73
2023/06/14 08:27:00;;;;;;;;;5.00;5.00;;;;;19.88;89.80;98734.34;6245156;27;96240;-73
2023/06/14 08:30:05;;;;;;;;;5.00;5.00;;;;;19.89;88.56;98734.06;6245391;28;96238;-73
2023/06/14 08:33:08;;;;;;;;;6.00;5.50;;;;;19.98;87.91;98738.94;6246156;28;96255;-73
2023/06/14 08:36:22;;;;;;;;;4.00;4.00;;;;;20.11;87.48;98751.94;6246989;27;96380;-73
2023/06/14 08:39:26;;;;;;;;;3.40;3.40;;;;;20.20;87.01;98747.50;6247324;28;96380;-73
2023/06/14 08:42:30;;;;;;;;;2.00;1.50;;;;;20.23;85.63;98749.66;6230296;28;96643;-73
2023/06/14 08:45:35;;;;;;;;;2.40;2.40;;;;;20.21;86.14;98744.47;6246106;28;96850;-73
2023/06/14 08:48:39;;;;;;;;;3.00;3.00;;;;;20.30;85.34;98750.13;6244900;27;96218;-73
2023/06/14 08:51:44;;;;;;;;;2.00;2.00;;;;;20.35;85.99;98749.28;6241754;28;96959;-73
2023/06/14 08:54:48;;;;;;;;;3.00;3.00;;;;;20.31;85.78;98755.34;6244123;28;96784;-73
2023/06/14 08:57:52;;;;;;;;;3.00;2.80;;;;;20.28;85.09;98761.34;6244316;28;96931;-73
2023/06/14 09:00:56;;;;;;;;;4.00;4.00;;;;;20.24;86.57;98757.56;6230746;28;98621;-73
2023/06/14 09:04:00;;;;;;;;;3.00;3.00;;;;;20.21;86.63;98766.38;6246938;28;96662;-73
2023/06/14 09:07:06;;;;;;;;;4.00;3.40;;;;;20.21;86.39;98762.81;6222447;28;96327;-72
2023/06/14 09:10:10;;;;;;;;;3.00;3.00;;;;;20.17;87.98;98769.97;6223601;28;96541;-73
2023/06/14 09:13:14;;;;;;;;;4.00;4.00;;;;;20.18;87.71;98766.91;6224158;28;96322;-73
2023/06/14 09:16:17;;;;;;;;;3.00;3.00;;;;;20.15;87.75;98759.31;6204115;28;96622;-73
2023/06/14 09:19:23;;;;;;;;;3.00;3.00;;;;;20.17;88.89;98767.22;6229949;28;96279;-72
2023/06/14 09:22:31;;;;;;;;;3.33;3.00;;;;;20.15;88.65;98772.16;6242076;28;96810;-73
2023/06/14 09:25:43;;;;;;;;;5.00;4.80;;;;;20.15;88.24;98769.44;6242281;27;96148;-72
2023/06/14 09:28:48;;;;;;;;;3.20;3.20;;;;;20.15;88.95;98770.25;6241348;28;96297;-73
2023/06/14 09:31:52;;;;;;;;;4.00;4.00;;;;;20.15;86.87;98770.25;6239091;27;96209;-73
2023/06/14 09:34:56;;;;;;;;;4.00;4.00;;;;;20.11;87.52;98774.66;6238393;28;96363;-74
2023/06/14 09:38:00;;;;;;;;;6.00;6.00;;;;;20.10;87.60;98778.50;6238738;28;99458;-73
2023/06/14 09:41:05;;;;;;;;;4.00;4.00;;;;;20.11;90.01;98776.59;6239771;28;96219;-73
2023/06/14 09:44:09;;;;;;;;;5.00;4.75;;;;;20.13;89.63;98775.22;6238307;27;96265;-73
2023/06/14 09:47:21;;;;;;;;;6.00;6.00;;;;;20.23;89.71;98768.81;6221791;28;98601;-72
2023/06/14 09:50:25;;;;;;;;;8.00;8.00;;;;;20.37;90.82;98767.09;6240744;27;96294;-72
2023/06/14 09:53:31;;;;;;;;;8.60;7.60;;;;;20.47;89.10;98760.69;6222298;28;99435;-72
2023/06/14 09:56:38;;;;;;;;;7.60;7.00;;;;;20.62;87.41;98768.75;6240530;28;96243;-73
2023/06/14 09:59:44;;;;;;;;;7.50;6.00;;;;;20.69;88.66;98766.47;6240763;28;96257;-72
2023/06/14 10:02:55;;;;;;;;;10.00;8.40;;;;;20.75;87.79;98762.59;6242427;27;96422;-73
2023/06/14 10:06:03;;;;;;;;;9.00;8.00;;;;;20.81;87.45;98760.59;6241576;27;96269;-73
2023/06/14 10:09:09;;;;;;;;;7.00;6.20;;;;;20.91;87.14;98771.44;6240446;27;96301;-72
2023/06/14 10:12:18;;;;;;;;;9.00;8.00;;;;;21.00;86.76;98770.50;6240594;27;96378;-73
2023/06/14 10:15:29;;;;;;;;;5.60;5.60;;;;;21.05;87.14;98777.84;6240117;28;96370;-72
2023/06/14 10:18:43;;;;;;;;;7.00;7.00;;;;;21.06;86.26;98777.53;6242625;27;96267;-72
2023/06/14 10:21:56;;;;;;;;;7.00;7.00;;;;;21.07;85.17;98783.84;6243943;27;96650;-72
2023/06/14 10:25:02;;;;;;;;;6.75;6.25;;;;;21.05;84.03;98781.41;6242126;27;96228;-71
2023/06/14 10:28:22;;;;;;;;;7.00;7.00;;;;;21.03;83.85;98769.09;6243324;27;96032;-72
2023/06/14 10:31:42;;;;;;;;;6.25;6.00;;;;;21.12;84.47;98781.88;6240827;28;96668;-74
2023/06/14 10:34:46;;;;;;;;;8.00;8.00;;;;;21.17;85.01;98772.78;6239118;28;96302;-72
2023/06/14 10:37:49;;;;;;;;;7.00;7.00;;;;;21.26;84.77;98778.47;6242006;27;96353;-72
2023/06/14 10:40:57;;;;;;;;;6.50;6.50;;;;;21.34;83.08;98784.09;6241127;27;98407;-73
2023/06/14 10:44:38;;;;;;;;;6.00;5.00;;;;;21.50;80.50;98782.75;6245613;28;98505;-72
2023/06/14 10:47:41;;;;;;;;;7.00;6.00;;;;;21.57;78.75;98785.97;6245204;28;96440;-71
2023/06/14 10:50:49;;;;;;;;;5.80;5.80;;;;;21.63;79.67;98772.19;6244954;28;96618;-72
2023/06/14 10:53:52;;;;;;;;;8.00;8.00;;;;;21.66;78.67;98777.88;6246614;27;96280;-71
2023/06/14 10:57:00;;;;;;;;;8.00;7.20;;;;;21.72;79.27;98771.22;6264228;27;97473;-71
2023/06/14 11:00:12;;;;;;;;;5.00;5.00;;;;;21.76;78.68;98766.75;6259960;27;96820;-72
2023/06/14 11:03:48;;;;;;;;;7.50;7.50;;;;;21.82;78.83;98768.31;6247587;27;96948;-74
2023/06/14 11:06:55;;;;;;;;;9.00;8.00;;;;;21.84;78.49;98766.09;6226028;28;98379;-72
2023/06/14 11:10:18;;;;;;;;;11.00;11.00;;;;;21.86;79.86;98771.28;6238257;27;96782;-73
2023/06/14 11:13:26;;;;;;;;;9.75;9.00;;;;;21.69;76.50;98766.34;6230534;28;96645;-72
2023/06/14 11:16:33;;;;;;;;;11.00;10.00;;;;;21.55;76.71;98765.44;6241479;27;96426;-71
2023/06/14 11:19:36;;;;;;;;;12.50;11.00;;;;;21.59;78.88;98759.06;6235285;27;96632;-72
2023/06/14 11:22:40;;;;;;;;;10.67;10.00;;;;;21.73;78.37;98763.81;6252466;27;96822;-72
2023/06/14 11:25:44;;;;;;;;;9.00;8.00;;;;;21.92;79.64;98759.13;6248122;27;96382;-72
2023/06/14 11:28:48;;;;;;;;;9.00;9.00;;;;;22.08;79.96;98759.72;6225509;27;96605;-72
2023/06/14 11:31:52;;;;;;;;;7.80;7.80;;;;;22.38;78.60;98754.50;6225232;27;96322;-73
2023/06/14 11:34:55;;;;;;;;;8.00;8.00;;;;;22.83;76.31;98755.63;6239314;27;96301;-72
2023/06/14 11:38:00;;;;;;;;;8.60;8.60;;;;;23.46;74.01;98754.88;6220429;27;96630;-72
2023/06/14 11:41:03;;;;;;;;;9.00;8.60;;;;;24.21;72.47;98747.91;6231418;28;96307;-74
2023/06/14 11:44:09;;;;;;;;;9.67;8.67;;;;;24.49;66.01;98754.88;6225143;27;96569;-72
2023/06/14 11:47:12;;;;;;;;;10.00;8.60;;;;;24.71;65.68;98752.09;6222725;28;96210;-72
2023/06/14 11:50:16;;;;;;;;;8.00;8.00;;;;;24.77;64.21;98750.03;6231431;27;96296;-72
2023/06/14 11:53:19;;;;;;;;;9.00;8.00;;;;;24.72;65.26;98741.88;6250410;27;97318;-73
2023/06/14 11:56:23;;;;;;;;;8.00;8.00;;;;;24.92;62.93;98739.38;6247801;27;98939;-72
2023/06/14 11:59:28;;;;;;;;;8.75;8.00;;;;;25.14;60.72;98718.38;6226504;27;96686;-73
2023/06/14 12:02:32;;;;;;;;;10.00;9.00;;;;;25.54;58.23;98719.91;6241920;28;96638;-73
2023/06/14 12:05:35;;;;;;;;;9.60;8.20;;;;;25.82;57.93;98723.97;6241733;27;98358;-72
2023/06/14 12:08:39;;;;;;;;;10.00;9.75;;;;;25.89;53.43;98729.03;6245411;28;97179;-72
2023/06/14 12:11:43;;;;;;;;;8.00;7.80;;;;;25.88;55.64;98736.50;6249826;27;96882;-72
2023/06/14 12:14:49;;;;;;;;;9.00;8.60;;;;;25.95;55.35;98730.47;6250369;27;97771;-71
2023/06/14 12:17:55;;;;;;;;;9.40;8.40;;;;;25.85;52.78;98705.97;6267345;27;96773;-72
2023/06/14 12:21:02;;;;;;;;;10.00;10.00;;;;;25.77;51.27;98726.91;6247037;27;96637;-71
2023/06/14 12:24:06;;;;;;;;;11.60;11.00;;;;;25.77;54.75;98728.84;6267724;27;96850;-71
2023/06/14 12:27:11;;;;;;;;;12.20;11.80;;;;;25.65;52.64;98723.19;6254099;27;98704;-73
2023/06/14 12:30:16;;;;;;;;;9.00;9.00;;;;;25.62;53.93;98721.88;6246202;27;96289;-71
2023/06/14 12:33:20;;;;;;;;;10.00;10.00;;;;;25.58;52.66;98720.91;6260729;27;96272;-71
2023/06/14 12:36:24;;;;;;;;;8.20;8.00;;;;;25.51;54.70;98717.75;6259107;27;98896;-72
2023/06/14 12:39:27;;;;;;;;;11.00;10.00;;;;;25.84;53.91;98720.91;6241101;27;99076;-72
2023/06/14 12:42:31;;;;;;;;;10.00;8.60;;;;;26.03;51.40;98706.75;6239047;27;96227;-72
2023/06/14 12:45:35;;;;;;;;;6.00;6.00;;;;;26.30;53.40;98707.19;6254379;27;96335;-72
2023/06/14 12:48:39;;;;;;;;;7.00;7.00;;;;;26.35;50.51;98699.88;6267675;27;98324;-72
2023/06/14 12:51:42;;;;;;;;;5.40;5.00;;;;;26.66;49.90;98706.75;6258553;27;99767;-71
2023/06/14 12:54:46;;;;;;;;;5.60;5.60;;;;;26.99;47.97;98706.97;6266290;27;96299;-71
2023/06/14 12:57:50;;;;;;;;;7.00;6.00;;;;;27.30;49.38;98708.56;6250603;27;97743;-72
2023/06/14 13:00:54;;;;;;;;;5.80;5.00;;;;;27.30;46.05;98709.38;6253755;27;96252;-71
2023/06/14 13:03:58;;;;;;;;;8.00;8.00;;;;;27.52;48.29;98706.31;6239963;27;97084;-71
2023/06/14 13:07:02;;;;;;;;;7.00;6.00;;;;;27.47;46.67;98702.91;6250625;28;96246;-70
2023/06/14 13:10:06;;;;;;;;;5.40;5.40;;;;;27.52;45.92;98702.72;6254773;27;98391;-70
2023/06/14 13:13:12;;;;;;;;;6.80;6.40;;;;;27.42;45.59;98709.44;6276541;27;96938;-72
2023/06/14 13:16:16;;;;;;;;;6.20;6.00;;;;;27.37;45.30;98706.88;6259760;27;96680;-72
2023/06/14 13:19:20;;;;;;;;;6.40;5.40;;;;;27.30;45.71;98708.56;6268858;27;96348;-73
2023/06/14 13:22:23;;;;;;;;;6.00;5.00;;;;;27.25;44.18;98711.53;6264901;27;96329;-72
2023/06/14 13:25:26;;;;;;;;;8.40;8.00;;;;;27.07;45.23;98705.31;6249585;28;96277;-72
2023/06/14 13:28:31;;;;;;;;;10.00;8.00;;;;;27.17;44.45;98704.09;6233442;28;98578;-73
2023/06/14 13:31:36;;;;;;;;;4.00;4.00;;;;;27.36;43.77;98710.81;6266200;27;96321;-71
2023/06/14 13:34:39;;;;;;;;;8.80;8.40;;;;;27.46;44.95;98701.31;6267562;27;96296;-71
2023/06/14 13:37:43;;;;;;;;;8.60;7.60;;;;;27.66;44.08;98697.72;6240530;28;98540;-71
2023/06/14 13:40:46;;;;;;;;;8.00;8.00;;;;;27.68;43.08;98702.94;6259883;27;96800;-71
2023/06/14 13:43:50;;;;;;;;;6.00;5.00;;;;;27.10;42.97;98652.84;6237544;28;98408;-71
2023/06/14 13:46:54;;;;;;;;;8.00;7.00;;;;;27.19;42.93;98696.25;6260045;27;98963;-71
2023/06/14 13:49:59;;;;;;;;;5.80;5.80;;;;;26.99;42.87;98697.84;6256094;27;96268;-71
2023/06/14 13:53:02;;;;;;;;;7.40;7.00;;;;;26.84;44.83;98698.38;6266947;27;96857;-71
2023/06/14 13:56:06;;;;;;;;;8.00;7.00;;;;;26.71;43.49;98698.28;6268616;27;98812;-71
2023/06/14 13:59:10;;;;;;;;;6.00;6.00;;;;;26.58;43.40;98699.31;6260699;27;96230;-70
2023/06/14 14:02:15;;;;;;;;;7.00;7.00;;;;;26.25;43.40;98687.22;6257497;28;96451;-71
2023/06/14 14:05:20;;;;;;;;;5.40;5.00;;;;;26.29;45.16;98702.03;6255241;27;96496;-71
2023/06/14 14:08:24;;;;;;;;;5.00;5.00;;;;;26.17;45.20;98704.59;6266139;27;96533;-71
2023/06/14 14:11:28;;;;;;;;;6.75;6.75;;;;;26.04;45.61;98697.31;6282571;27;96851;-71
2023/06/14 14:14:33;;;;;;;;;6.00;6.00;;;;;25.85;46.27;98692.16;6251316;27;98771;-71
2023/06/14 14:17:38;;;;;;;;;7.60;7.00;;;;;25.71;47.08;98697.81;6257293;27;96257;-71
2023/06/14 14:20:41;;;;;;;;;7.50;7.00;;;;;25.67;46.06;98707.09;6258926;28;96788;-71